createdAt,value
2018-11-06T00:01:31.279Z,41.53
2018-11-06T00:04:03.825Z,81.70
2018-11-06T00:06:33.002Z,44.95
2018-11-06T00:09:01.964Z,41.20
2018-11-06T00:11:30.905Z,47.98
2018-11-06T00:13:59.842Z,101.00
2018-11-06T00:16:28.798Z,181.05
2018-11-06T00:18:57.724Z,58.52
2018-11-06T00:21:26.673Z,203.77
2018-11-06T00:23:55.610Z,62.30
2018-11-06T00:26:24.549Z,65.75
2018-11-06T00:28:53.480Z,80.35
2018-11-06T00:31:22.399Z,167.60
2018-11-06T00:33:51.336Z,423.20
2018-11-06T00:36:20.346Z,195.30
2018-11-06T00:38:49.298Z,37.05
2018-11-06T00:41:18.221Z,32.83
2018-11-06T00:43:47.185Z,31.30
2018-11-06T00:46:16.097Z,30.30
2018-11-06T00:48:45.033Z,38.38
2018-11-06T00:51:13.957Z,32.28
2018-11-06T00:53:42.902Z,171.65
2018-11-06T00:56:11.835Z,33.02
2018-11-06T00:58:40.782Z,29.77
2018-11-06T01:01:09.709Z,35.80
2018-11-06T01:03:44.025Z,40.12
2018-11-06T01:06:12.952Z,36.98
2018-11-06T01:08:41.904Z,28.45
2018-11-06T01:11:10.837Z,28.30
2018-11-06T01:13:39.861Z,40.50
2018-11-06T01:16:08.789Z,26.50
2018-11-06T01:18:37.727Z,25.90
2018-11-06T01:21:06.669Z,25.25
2018-11-06T01:23:35.617Z,35.33
2018-11-06T01:26:04.556Z,37.90
2018-11-06T01:28:33.484Z,36.35
2018-11-06T01:31:02.394Z,21.85
2018-11-06T01:33:31.357Z,19.92
2018-11-06T01:36:00.278Z,26.03
2018-11-06T01:38:29.246Z,21.33
2018-11-06T01:40:58.168Z,20.75
2018-11-06T01:43:27.114Z,24.82
2018-11-06T01:45:56.065Z,24.82
2018-11-06T01:48:25.007Z,25.33
2018-11-06T01:50:53.928Z,25.15
2018-11-06T01:53:22.886Z,19.90
2018-11-06T01:55:51.819Z,18.90
2018-11-06T01:58:20.781Z,17.75
2018-11-06T02:00:49.708Z,18.60
2018-11-06T02:03:18.646Z,17.15
2018-11-06T02:05:47.577Z,17.20
2018-11-06T02:08:16.522Z,17.70
2018-11-06T02:10:45.457Z,17.90
2018-11-06T02:13:14.445Z,17.25
2018-11-06T02:15:43.362Z,19.65
2018-11-06T02:18:12.302Z,40.10
2018-11-06T02:20:41.222Z,22.67
2018-11-06T02:23:10.169Z,26.10
2018-11-06T02:25:39.086Z,34.90
2018-11-06T02:28:08.015Z,31.02
2018-11-06T02:30:36.921Z,30.08
2018-11-06T02:33:05.887Z,17.05
2018-11-06T02:35:34.818Z,17.17
2018-11-06T02:38:03.765Z,15.28
2018-11-06T02:40:32.679Z,14.77
2018-11-06T02:43:01.665Z,18.48
2018-11-06T02:45:30.577Z,16.10
2018-11-06T02:47:59.519Z,21.73
2018-11-06T02:50:28.450Z,23.83
2018-11-06T02:52:57.397Z,17.10
2018-11-06T02:55:26.329Z,18.37
2018-11-06T02:57:55.255Z,16.55
2018-11-06T03:00:24.170Z,15.87
2018-11-06T03:02:53.078Z,15.93
2018-11-06T03:05:22.036Z,20.82
2018-11-06T03:07:50.971Z,14.15
2018-11-06T03:10:19.982Z,13.90
2018-11-06T03:12:48.840Z,13.00
2018-11-06T03:15:17.773Z,12.68
2018-11-06T03:17:46.696Z,13.83
2018-11-06T03:20:15.690Z,12.60
2018-11-06T03:22:45.103Z,12.20
2018-11-06T03:25:14.018Z,19.30
2018-11-06T03:27:42.929Z,12.70
2018-11-06T03:30:13.751Z,11.90
2018-11-06T03:32:42.685Z,11.75
2018-11-06T03:35:12.733Z,12.70
2018-11-06T03:37:41.637Z,10.32
2018-11-06T03:40:11.330Z,11.33
2018-11-06T03:42:41.039Z,11.40
2018-11-06T03:45:10.756Z,12.10
2018-11-06T03:47:39.665Z,12.90
2018-11-06T03:50:09.976Z,13.08
2018-11-06T03:52:38.853Z,14.45
2018-11-06T03:55:07.826Z,23.50
2018-11-06T03:57:36.747Z,12.60
2018-11-06T04:00:07.593Z,12.80
2018-11-06T04:02:36.510Z,12.30
2018-11-06T04:05:06.173Z,11.45
2018-11-06T04:07:35.073Z,11.65
2018-11-06T04:10:05.000Z,13.00
2018-11-06T04:12:33.908Z,18.90
2018-11-06T04:15:02.825Z,21.60
2018-11-06T04:17:31.736Z,18.10
2018-11-06T04:20:00.661Z,15.00
2018-11-06T04:22:29.576Z,14.53
2018-11-06T04:24:58.516Z,14.80
2018-11-06T04:27:27.484Z,14.87
2018-11-06T04:29:56.434Z,13.93
2018-11-06T04:32:25.362Z,19.17
2018-11-06T04:34:54.309Z,18.15
2018-11-06T04:37:23.293Z,17.30
2018-11-06T04:39:52.225Z,18.67
2018-11-06T04:42:21.142Z,16.32
2018-11-06T04:44:50.062Z,14.97
2018-11-06T04:47:18.965Z,16.25
2018-11-06T04:49:47.897Z,12.10
2018-11-06T04:52:16.869Z,15.60
2018-11-06T04:54:45.818Z,16.63
2018-11-06T04:57:15.462Z,14.18
2018-11-06T04:59:44.420Z,14.98
2018-11-06T05:02:13.381Z,12.60
2018-11-06T05:04:42.257Z,12.80
2018-11-06T05:07:11.198Z,14.97
2018-11-06T05:09:40.121Z,14.70
2018-11-06T05:12:09.029Z,14.73
2018-11-06T05:14:37.958Z,13.20
2018-11-06T05:17:06.993Z,13.70
2018-11-06T05:19:35.918Z,15.30
2018-11-06T05:22:05.225Z,16.50
2018-11-06T05:24:34.165Z,17.47
2018-11-06T05:27:03.729Z,17.77
2018-11-06T05:29:32.742Z,15.97
2018-11-06T05:32:01.722Z,14.60
2018-11-06T05:34:30.618Z,13.53
2018-11-06T05:36:59.542Z,12.90
2018-11-06T05:39:28.527Z,12.90
2018-11-06T05:41:57.398Z,12.43
2018-11-06T05:44:26.297Z,12.85
2018-11-06T05:46:55.213Z,13.28
2018-11-06T05:49:24.129Z,14.05
2018-11-06T05:51:53.069Z,11.40
2018-11-06T05:54:21.990Z,17.93
2018-11-06T05:56:50.943Z,20.30
2018-11-06T05:59:19.865Z,22.07
2018-11-06T06:01:48.784Z,18.32
2018-11-06T06:04:17.698Z,17.92
2018-11-06T06:06:46.618Z,21.40
2018-11-06T06:09:15.521Z,20.60
2018-11-06T06:11:44.453Z,19.42
2018-11-06T06:14:13.366Z,19.13
2018-11-06T06:16:42.305Z,19.13
2018-11-06T06:19:11.195Z,18.83
2018-11-06T06:21:40.134Z,19.40
2018-11-06T06:24:09.041Z,18.57
2018-11-06T06:26:37.957Z,16.90
2018-11-06T06:29:07.617Z,16.35
2018-11-06T06:31:36.565Z,18.37
2018-11-06T06:34:05.557Z,16.50
2018-11-06T06:36:34.560Z,20.40
2018-11-06T06:39:03.554Z,14.15
2018-11-06T06:41:32.488Z,20.50
2018-11-06T06:44:01.401Z,25.50
2018-11-06T06:46:30.381Z,18.70
2018-11-06T06:48:59.277Z,18.17
2018-11-06T06:51:28.209Z,15.87
2018-11-06T06:53:57.167Z,17.70
2018-11-06T06:56:26.146Z,18.57
2018-11-06T06:58:55.658Z,16.55
2018-11-06T07:01:24.589Z,20.57
2018-11-06T07:03:54.268Z,19.75
2018-11-06T07:06:23.967Z,19.50
2018-11-06T07:11:38.801Z,16.95
2018-11-06T07:14:08.007Z,16.83
2018-11-06T07:16:36.937Z,16.48
2018-11-06T07:19:05.934Z,16.50
2018-11-06T07:21:34.880Z,16.97
2018-11-06T07:24:03.873Z,16.50
2018-11-06T07:26:33.302Z,20.62
2018-11-06T07:29:02.206Z,17.87
2018-11-06T07:31:31.243Z,16.07
2018-11-06T07:34:00.137Z,14.63
2018-11-06T07:36:29.104Z,14.77
2018-11-06T07:38:58.049Z,15.60
2018-11-06T07:41:27.038Z,20.92
2018-11-06T07:43:55.961Z,21.90
2018-11-06T07:46:24.889Z,21.00
2018-11-06T07:48:53.836Z,25.25
2018-11-06T07:51:22.750Z,30.40
2018-11-06T07:53:51.867Z,29.92
2018-11-06T07:56:20.878Z,31.70
2018-11-06T07:58:49.725Z,36.43
2018-11-06T08:01:18.629Z,33.42
2018-11-06T08:03:47.603Z,40.77
2018-11-06T08:06:16.563Z,29.02
2018-11-06T08:08:45.446Z,33.08
2018-11-06T08:11:14.348Z,31.00
2018-11-06T08:13:43.269Z,34.35
2018-11-06T08:16:12.206Z,35.17
2018-11-06T08:18:41.149Z,36.23
2018-11-06T08:21:10.037Z,38.28
2018-11-06T08:23:38.994Z,38.70
2018-11-06T08:26:08.005Z,37.43
2018-11-06T08:28:36.889Z,43.60
2018-11-06T08:31:06.320Z,45.63
2018-11-06T08:33:34.789Z,31.60
2018-11-06T08:36:03.693Z,38.55
2018-11-06T08:38:32.622Z,49.53
2018-11-06T08:41:01.515Z,52.53
2018-11-06T08:43:30.470Z,60.60
2018-11-06T08:45:59.484Z,77.87
2018-11-06T08:48:28.458Z,58.08
2018-11-06T08:50:57.405Z,61.37
2018-11-06T08:53:26.322Z,65.37
2018-11-06T08:55:55.318Z,85.42
2018-11-06T08:58:24.271Z,89.07
2018-11-06T09:00:53.165Z,74.05
2018-11-06T09:03:22.086Z,77.35
2018-11-06T09:05:50.990Z,87.17
2018-11-06T09:08:19.953Z,87.12
2018-11-06T09:10:48.852Z,83.82
2018-11-06T09:13:17.813Z,74.20
2018-11-06T09:15:46.760Z,79.82
2018-11-06T09:18:15.694Z,84.65
2018-11-06T09:20:44.650Z,82.80
2018-11-06T09:23:13.617Z,86.80
2018-11-06T09:25:42.602Z,86.17
2018-11-06T09:28:11.565Z,81.35
2018-11-06T09:30:40.487Z,80.15
2018-11-06T09:33:09.398Z,90.47
2018-11-06T09:35:38.298Z,88.65
2018-11-06T09:38:07.293Z,82.37
2018-11-06T09:40:36.187Z,94.23
2018-11-06T09:43:05.513Z,99.62
2018-11-06T09:45:34.444Z,96.57
2018-11-06T09:48:03.348Z,95.83
2018-11-06T09:50:32.305Z,79.77
2018-11-06T09:53:01.261Z,80.07
2018-11-06T09:55:30.144Z,78.40
2018-11-06T09:57:59.145Z,78.17
2018-11-06T10:00:28.042Z,78.87
2018-11-06T10:02:57.014Z,87.95
2018-11-06T10:05:25.941Z,78.15
2018-11-06T10:07:54.872Z,82.47
2018-11-06T10:10:23.891Z,63.48
2018-11-06T10:12:52.797Z,66.72
2018-11-06T10:15:21.833Z,77.77
2018-11-06T10:17:51.479Z,78.52
2018-11-06T10:20:21.170Z,71.92
2018-11-06T10:22:50.189Z,70.97
2018-11-06T10:25:19.110Z,66.82
2018-11-06T10:27:48.048Z,74.77
2018-11-06T10:30:18.277Z,74.57
2018-11-06T10:32:47.348Z,62.75
2018-11-06T10:35:16.297Z,63.13
2018-11-06T10:37:45.236Z,62.03
2018-11-06T10:40:15.818Z,57.23
2018-11-06T10:42:45.367Z,50.00
2018-11-06T10:45:14.374Z,52.80
2018-11-06T10:47:43.329Z,53.92
2018-11-06T10:50:13.190Z,45.83
2018-11-06T10:52:42.546Z,43.10
2018-11-06T10:55:12.537Z,42.78
2018-11-06T10:57:42.091Z,45.60
2018-11-06T11:00:17.266Z,48.57
2018-11-06T11:02:51.318Z,41.55
2018-11-06T11:05:22.077Z,38.90
2018-11-06T11:07:51.095Z,42.80
2018-11-06T11:10:20.069Z,32.75
2018-11-06T11:12:49.059Z,34.97
2018-11-06T11:15:18.015Z,39.40
2018-11-06T11:17:46.959Z,40.20
2018-11-06T11:20:16.033Z,39.48
2018-11-06T11:22:44.870Z,40.17
2018-11-06T11:25:16.408Z,39.80
2018-11-06T11:27:46.257Z,43.60
2018-11-06T11:30:16.085Z,46.80
2018-11-06T11:32:46.603Z,40.00
2018-11-06T11:35:15.790Z,45.80
2018-11-06T11:37:44.854Z,40.92
2018-11-06T11:40:14.842Z,43.50
2018-11-06T11:42:44.066Z,47.78
2018-11-06T11:45:13.982Z,44.40
2018-11-06T11:47:43.645Z,41.77
2018-11-06T11:50:13.838Z,42.83
2018-11-06T11:52:42.814Z,47.65
2018-11-06T11:55:11.905Z,44.90
2018-11-06T11:57:41.121Z,44.60
2018-11-06T12:00:13.088Z,42.45
2018-11-06T12:02:42.185Z,44.18
2018-11-06T12:05:11.696Z,40.00
2018-11-06T12:07:40.684Z,42.53
2018-11-06T12:10:10.818Z,43.93
2018-11-06T12:12:39.758Z,42.33
2018-11-06T12:15:11.869Z,44.40
2018-11-06T12:17:41.469Z,41.00
2018-11-06T12:20:10.751Z,39.73
2018-11-06T12:22:40.075Z,47.10
2018-11-06T12:25:09.482Z,43.65
2018-11-06T12:27:38.461Z,44.37
2018-11-06T12:30:09.403Z,41.10
2018-11-06T12:32:38.853Z,37.57
2018-11-06T12:35:08.310Z,36.38
2018-11-06T12:37:37.441Z,34.77
2018-11-06T12:40:07.233Z,38.75
2018-11-06T12:42:36.574Z,41.85
2018-11-06T12:45:07.149Z,41.42
2018-11-06T12:47:36.217Z,38.10
2018-11-06T12:50:05.924Z,41.88
2018-11-06T12:52:34.810Z,35.28
2018-11-06T12:55:04.022Z,35.55
2018-11-06T12:57:33.043Z,33.27
2018-11-06T13:00:01.987Z,36.15
2018-11-06T13:02:30.925Z,34.80
2018-11-06T13:04:59.903Z,36.33
2018-11-06T13:07:28.849Z,36.05
2018-11-06T13:09:57.906Z,36.65
2018-11-06T13:12:27.809Z,36.33
2018-11-06T13:14:57.238Z,35.63
2018-11-06T13:17:25.890Z,38.02
2018-11-06T13:19:54.845Z,35.70
2018-11-06T13:22:23.800Z,33.57
2018-11-06T13:24:52.761Z,37.23
2018-11-06T13:27:21.720Z,28.77
2018-11-06T13:29:50.682Z,33.90
2018-11-06T13:32:19.703Z,31.73
2018-11-06T13:34:48.654Z,29.32
2018-11-06T13:37:17.661Z,29.63
2018-11-06T13:39:46.601Z,33.98
2018-11-06T13:42:15.626Z,31.47
2018-11-06T13:44:44.724Z,30.65
2018-11-06T13:47:13.672Z,30.77
2018-11-06T13:49:42.618Z,35.60
2018-11-06T13:52:11.630Z,36.57
2018-11-06T13:54:40.543Z,35.17
2018-11-06T13:57:09.630Z,35.90
2018-11-06T13:59:38.701Z,34.73
2018-11-06T14:02:07.658Z,36.50
2018-11-06T14:04:36.601Z,40.13
2018-11-06T14:07:05.649Z,39.67
2018-11-06T14:09:34.585Z,37.27
2018-11-06T14:12:03.574Z,36.60
2018-11-06T14:14:32.512Z,35.52
2018-11-06T14:17:01.462Z,41.20
2018-11-06T14:19:30.559Z,40.57
2018-11-06T14:21:59.580Z,36.10
2018-11-06T14:24:28.580Z,37.83
2018-11-06T14:26:57.584Z,38.37
2018-11-06T14:29:26.626Z,40.47
2018-11-06T14:31:55.720Z,35.50
2018-11-06T14:34:24.701Z,44.33
2018-11-06T14:36:53.637Z,42.90
2018-11-06T14:39:22.875Z,43.98
2018-11-06T14:41:51.873Z,41.20
2018-11-06T14:44:20.821Z,45.78
2018-11-06T14:46:49.990Z,39.75
2018-11-06T14:49:19.483Z,36.58
2018-11-06T14:51:48.456Z,44.45
2018-11-06T14:54:17.366Z,54.27
2018-11-06T14:56:46.331Z,60.20
2018-11-06T14:59:15.930Z,45.38
2018-11-06T15:01:44.893Z,54.23
2018-11-06T15:04:13.911Z,59.13
2018-11-06T15:06:42.992Z,56.97
2018-11-06T15:09:11.934Z,43.05
2018-11-06T15:11:41.097Z,41.73
2018-11-06T15:14:10.046Z,46.23
2018-11-06T15:16:40.097Z,42.53
2018-11-06T15:19:09.049Z,45.33
2018-11-06T15:21:38.307Z,42.93
2018-11-06T15:24:07.288Z,42.20
2018-11-06T15:26:36.346Z,42.80
2018-11-06T15:29:05.693Z,48.92
2018-11-06T15:31:34.621Z,40.45
2018-11-06T15:34:03.678Z,43.60
2018-11-06T15:36:33.319Z,86.87
2018-11-06T15:39:02.263Z,121.43
2018-11-06T15:41:31.337Z,123.30
2018-11-06T15:44:00.213Z,74.05
2018-11-06T15:46:29.162Z,50.60
2018-11-06T15:48:58.186Z,47.60
2018-11-06T15:51:27.080Z,47.50
2018-11-06T15:53:55.999Z,45.10
2018-11-06T15:56:25.992Z,41.90
2018-11-06T15:58:55.396Z,48.67
2018-11-06T16:01:25.821Z,44.33
2018-11-06T16:03:54.742Z,43.17
2018-11-06T16:06:23.882Z,43.57
2018-11-06T16:08:52.818Z,39.67
2018-11-06T16:11:21.917Z,43.33
2018-11-06T16:13:50.874Z,50.50
2018-11-06T16:16:19.773Z,44.20
2018-11-06T16:18:48.697Z,46.65
2018-11-06T16:21:17.601Z,44.72
2018-11-06T16:23:46.542Z,45.70
2018-11-06T16:26:15.457Z,46.53
2018-11-06T16:28:44.397Z,46.95
2018-11-06T16:31:13.321Z,45.48
2018-11-06T16:33:42.258Z,44.38
2018-11-06T16:36:11.185Z,46.57
2018-11-06T16:38:40.146Z,45.40
2018-11-06T16:41:09.066Z,50.90
2018-11-06T16:43:38.011Z,53.03
2018-11-06T16:46:07.007Z,41.13
2018-11-06T16:48:36.686Z,39.73
2018-11-06T16:51:06.114Z,40.13
2018-11-06T16:53:35.112Z,44.93
2018-11-06T16:56:04.057Z,41.07
2018-11-06T16:58:32.987Z,36.80
2018-11-06T17:01:02.081Z,38.73
2018-11-06T17:03:30.881Z,37.55
2018-11-06T17:05:59.797Z,42.63
2018-11-06T17:08:28.729Z,38.93
2018-11-06T17:10:57.644Z,46.77
2018-11-06T17:13:26.581Z,43.83
2018-11-06T17:15:55.516Z,45.07
2018-11-06T17:18:24.449Z,46.00
2018-11-06T17:20:53.392Z,71.97
2018-11-06T17:23:22.338Z,55.85
2018-11-06T17:25:51.271Z,49.20
2018-11-06T17:28:20.202Z,51.50
2018-11-06T17:30:49.138Z,53.17
2018-11-06T17:33:18.072Z,57.20
2018-11-06T17:35:47.290Z,58.00
2018-11-06T17:38:16.372Z,78.20
2018-11-06T17:40:45.285Z,67.97
2018-11-06T17:43:14.225Z,85.77
2018-11-06T17:45:43.189Z,81.27
2018-11-06T17:48:12.145Z,72.90
2018-11-06T17:50:41.073Z,88.17
2018-11-06T17:53:10.055Z,71.67
2018-11-06T17:55:38.980Z,70.45
2018-11-06T17:58:07.921Z,67.08
2018-11-06T18:00:36.982Z,65.15
2018-11-06T18:03:06.185Z,55.70
2018-11-06T18:05:35.124Z,59.20
2018-11-06T18:08:04.088Z,61.53
2018-11-06T18:10:33.078Z,55.73
2018-11-06T18:13:01.999Z,64.50
2018-11-06T18:15:30.925Z,56.60
2018-11-06T18:17:59.908Z,53.96
2018-11-06T18:20:28.897Z,53.33
2018-11-06T18:22:57.835Z,48.70
2018-11-06T18:25:27.023Z,54.40
2018-11-06T18:27:55.909Z,56.98
2018-11-06T18:30:24.931Z,50.87
2018-11-06T18:32:53.838Z,52.30
2018-11-06T18:35:22.836Z,55.70
2018-11-06T18:37:51.814Z,50.83
2018-11-06T18:40:21.027Z,55.10
2018-11-06T18:42:50.850Z,49.07
2018-11-06T18:45:20.145Z,55.28
2018-11-06T18:47:49.131Z,75.20
2018-11-06T18:50:18.827Z,54.40
2018-11-06T18:52:48.817Z,58.83
2018-11-06T18:55:17.962Z,56.73
2018-11-06T18:57:46.897Z,57.90
2018-11-06T19:00:17.786Z,54.65
2018-11-06T19:02:47.630Z,52.67
2018-11-06T19:05:17.055Z,58.25
2018-11-06T19:07:46.103Z,44.45
2018-11-06T19:10:15.804Z,46.85
2018-11-06T19:12:44.945Z,49.90
2018-11-06T19:15:16.223Z,50.50
2018-11-06T19:17:45.809Z,48.27
2018-11-06T19:20:15.126Z,49.48
2018-11-06T19:22:44.133Z,47.23
2018-11-06T19:25:13.762Z,48.40
2018-11-06T19:27:42.757Z,52.23
2018-11-06T19:30:13.533Z,44.70
2018-11-06T19:32:42.434Z,45.00
2018-11-06T19:35:11.373Z,46.90
2018-11-06T19:37:40.906Z,48.23
2018-11-06T19:40:11.637Z,52.87
2018-11-06T19:42:41.262Z,50.90
2018-11-06T19:45:10.867Z,48.90
2018-11-06T19:47:39.776Z,50.67
2018-11-06T19:50:10.589Z,55.35
2018-11-06T19:52:39.781Z,52.67
2018-11-06T19:55:09.719Z,57.70
2018-11-06T19:57:38.645Z,58.78
2018-11-06T20:00:12.827Z,58.40
2018-11-06T20:02:42.797Z,58.80
2018-11-06T20:05:11.967Z,58.33
2018-11-06T20:07:42.013Z,60.20
2018-11-06T20:10:13.686Z,54.15
2018-11-06T20:12:43.892Z,58.10
2018-11-06T20:15:13.823Z,57.53
2018-11-06T20:17:43.320Z,60.30
2018-11-06T20:20:15.687Z,51.00
2018-11-06T20:22:44.991Z,50.98
2018-11-06T20:25:14.206Z,52.97
2018-11-06T20:27:43.566Z,51.95
2018-11-06T20:30:14.960Z,47.38
2018-11-06T20:32:43.892Z,48.87
2018-11-06T20:35:13.181Z,53.17
2018-11-06T20:37:42.133Z,47.03
2018-11-06T20:40:13.398Z,46.02
2018-11-06T20:42:43.077Z,52.57
2018-11-06T20:45:13.301Z,50.30
2018-11-06T20:47:42.673Z,52.95
2018-11-06T20:50:17.037Z,59.38
2018-11-06T20:52:46.298Z,52.70
2018-11-06T20:55:15.979Z,48.87
2018-11-06T20:57:44.944Z,57.73
2018-11-06T21:00:20.238Z,49.98
2018-11-06T21:02:51.365Z,47.67
2018-11-06T21:05:20.343Z,45.60
2018-11-06T21:07:49.479Z,49.27
2018-11-06T21:10:19.706Z,44.25
2018-11-06T21:12:48.650Z,47.73
2018-11-06T21:15:17.670Z,46.70
2018-11-06T21:17:46.685Z,56.60
2018-11-06T21:20:16.563Z,45.73
2018-11-06T21:22:45.477Z,48.37
2018-11-06T21:25:15.079Z,44.20
2018-11-06T21:27:44.260Z,47.17
